Time;durP1;ratioP1;P1;durP2;ratioP2;P2;SDS_P1;SDS_P2;PMS_P1;PMS_P2;Temp;Humidity;BMP_temperature;BMP_pressure;BME280_temperature;BME280_humidity;BME280_pressure;Samples;Min_cycle;Max_cycle;Signal;HPM_P1;HPM_P2
2023/08/02 00:00:35;;;;;;;1.20;1.00;;;;;;;25.65;71.76;98645.63;5038920;28;20554;-72
2023/08/02 00:03:02;;;;;;;1.37;1.37;;;;;;;25.71;71.58;98650.25;5038611;28;20197;-72
2023/08/02 00:05:30;;;;;;;1.33;1.10;;;;;;;25.77;71.90;98648.75;5041596;28;20612;-72
2023/08/02 00:07:56;;;;;;;1.30;1.20;;;;;;;25.82;72.02;98652.56;5041572;28;20215;-72
2023/08/02 00:10:25;;;;;;;0.70;0.70;;;;;;;25.84;71.29;98655.84;5034250;28;20704;-70
2023/08/02 00:12:52;;;;;;;1.23;1.13;;;;;;;25.86;71.90;98653.88;5045888;28;20212;-72
2023/08/02 00:15:19;;;;;;;1.53;1.43;;;;;;;25.88;71.97;98651.09;5041515;28;20201;-72
2023/08/02 00:17:46;;;;;;;1.47;1.37;;;;;;;25.91;71.28;98656.03;5050411;28;20312;-71
2023/08/02 00:20:13;;;;;;;1.00;1.00;;;;;;;25.92;71.42;98652.41;5052887;28;20200;-71
2023/08/02 00:22:40;;;;;;;1.87;1.30;;;;;;;25.94;71.70;98653.91;5052689;28;20232;-71
2023/08/02 00:25:07;;;;;;;0.60;0.60;;;;;;;25.95;71.76;98647.66;5042835;28;20208;-71
2023/08/02 00:27:35;;;;;;;0.90;0.90;;;;;;;25.95;72.52;98662.59;5052752;28;20220;-71
2023/08/02 00:30:02;;;;;;;0.87;0.87;;;;;;;25.94;72.49;98659.16;5050158;28;20263;-72
2023/08/02 00:32:29;;;;;;;0.93;0.93;;;;;;;25.93;72.50;98659.31;5052907;28;20201;-72
2023/08/02 00:34:55;;;;;;;1.10;1.00;;;;;;;25.89;72.92;98658.81;5052870;28;20208;-72
2023/08/02 00:37:23;;;;;;;2.70;1.40;;;;;;;25.82;73.49;98670.94;5052840;28;20685;-72
2023/08/02 00:39:53;;;;;;;1.10;1.10;;;;;;;25.72;73.79;98662.38;5052307;28;20193;-72
2023/08/02 00:42:21;;;;;;;1.33;1.23;;;;;;;25.74;74.17;98665.66;5052576;28;20232;-72
2023/08/02 00:44:49;;;;;;;1.20;1.20;;;;;;;25.67;74.15;98658.59;5052470;28;20647;-72
2023/08/02 00:47:17;;;;;;;0.97;0.90;;;;;;;25.70;74.33;98672.22;5052451;28;20193;-72
2023/08/02 00:49:45;;;;;;;1.00;0.97;;;;;;;25.65;74.08;98671.88;5052556;28;20197;-70
2023/08/02 00:52:12;;;;;;;0.97;0.90;;;;;;;25.61;74.72;98674.97;5046860;28;20207;-72
2023/08/02 00:54:39;;;;;;;0.83;0.83;;;;;;;25.56;75.13;98673.63;5052331;28;20200;-71
2023/08/02 00:57:06;;;;;;;0.90;0.90;;;;;;;25.53;73.87;98668.72;5052352;28;20711;-72
2023/08/02 00:59:33;;;;;;;1.47;1.37;;;;;;;25.55;73.73;98679.06;5052360;28;20201;-72
2023/08/02 01:02:01;;;;;;;1.60;1.10;;;;;;;25.54;74.68;98674.78;5052241;28;20196;-70
2023/08/02 01:04:28;;;;;;;0.97;0.97;;;;;;;25.48;74.44;98680.63;5043848;28;20200;-69
2023/08/02 01:07:02;;;;;;;1.27;1.23;;;;;;;25.46;74.20;98688.66;5051925;28;20196;-69
2023/08/02 01:09:32;;;;;;;1.77;1.07;;;;;;;25.42;74.50;98681.28;5052389;28;20629;-70
2023/08/02 01:12:05;;;;;;;1.90;0.87;;;;;;;25.38;74.07;98686.00;5052083;28;20205;-69
2023/08/02 01:14:35;;;;;;;1.47;0.70;;;;;;;25.35;74.14;98681.06;5052088;28;20212;-70
2023/08/02 01:17:04;;;;;;;1.17;1.17;;;;;;;25.35;74.61;98685.50;5046852;28;20263;-70
2023/08/02 01:19:32;;;;;;;1.03;0.80;;;;;;;25.30;74.68;98677.28;5036725;28;20562;-70
2023/08/02 01:22:00;;;;;;;6.70;1.07;;;;;;;25.32;74.74;98685.81;5044006;28;20231;-69
2023/08/02 01:24:33;;;;;;;0.97;0.97;;;;;;;25.31;74.90;98689.41;5040482;28;20201;-69
2023/08/02 01:27:05;;;;;;;2.00;0.80;;;;;;;25.24;74.44;98688.38;5040238;28;20731;-69
2023/08/02 01:29:33;;;;;;;1.53;1.43;;;;;;;25.19;74.65;98690.66;5040443;28;20663;-69
2023/08/02 01:32:01;;;;;;;2.27;1.30;;;;;;;25.13;74.95;98691.28;5040766;28;20576;-68
2023/08/02 01:34:29;;;;;;;1.20;0.97;;;;;;;25.05;75.06;98690.25;5040399;28;20201;-70
2023/08/02 01:36:56;;;;;;;1.13;1.13;;;;;;;25.01;75.11;98694.16;5041494;28;20254;-69
2023/08/02 01:39:24;;;;;;;1.10;1.10;;;;;;;25.00;75.53;98686.44;5030564;28;21492;-69
2023/08/02 01:41:51;;;;;;;0.90;0.90;;;;;;;24.98;75.90;98686.59;5041711;28;20197;-70
2023/08/02 01:44:17;;;;;;;1.13;1.13;;;;;;;24.93;74.93;98686.25;5048194;28;20256;-69
2023/08/02 01:46:44;;;;;;;1.37;1.17;;;;;;;24.93;76.17;98685.41;5037778;28;20200;-69
2023/08/02 01:49:11;;;;;;;1.00;1.00;;;;;;;24.90;75.83;98690.97;5047155;28;20271;-69
2023/08/02 01:51:38;;;;;;;0.93;0.93;;;;;;;24.90;75.67;98697.03;5046222;28;20204;-69
2023/08/02 01:54:04;;;;;;;0.70;0.70;;;;;;;24.91;76.12;98698.66;5047203;28;20196;-69
2023/08/02 01:56:33;;;;;;;0.90;0.90;;;;;;;24.89;76.36;98699.81;5034108;28;20203;-70
2023/08/02 01:58:59;;;;;;;1.60;1.50;;;;;;;24.87;76.77;98694.72;5042973;28;20189;-70
2023/08/02 02:01:26;;;;;;;1.63;1.50;;;;;;;24.84;77.10;98688.97;5039084;28;20209;-70
2023/08/02 02:03:53;;;;;;;1.80;1.07;;;;;;;24.80;77.46;98695.44;5041736;28;20196;-70
2023/08/02 02:06:20;;;;;;;1.93;1.20;;;;;;;24.77;77.19;98696.59;5036034;28;20205;-70
2023/08/02 02:08:46;;;;;;;0.80;0.80;;;;;;;24.74;76.82;98691.66;5040441;28;20217;-70
2023/08/02 02:11:13;;;;;;;1.03;1.03;;;;;;;24.72;77.40;98693.59;5049861;28;20205;-69
2023/08/02 02:13:41;;;;;;;0.80;0.80;;;;;;;24.67;78.05;98695.84;5038035;28;20205;-69
2023/08/02 02:16:08;;;;;;;1.23;1.13;;;;;;;24.63;77.89;98702.38;5044772;28;20282;-70
2023/08/02 02:18:35;;;;;;;1.53;1.13;;;;;;;24.59;78.07;98698.41;5054307;28;20207;-69
2023/08/02 02:21:00;;;;;;;1.13;1.13;;;;;;;24.59;77.64;98714.13;5055586;28;20200;-69
2023/08/02 02:23:27;;;;;;;0.70;0.70;;;;;;;24.49;78.01;98708.16;5055233;28;20585;-69
2023/08/02 02:25:54;;;;;;;1.37;1.27;;;;;;;24.40;78.61;98704.63;5055450;28;20665;-69
2023/08/02 02:28:21;;;;;;;1.53;1.33;;;;;;;24.35;78.77;98700.81;5055165;28;20216;-68
2023/08/02 02:30:51;;;;;;;0.97;0.97;;;;;;;24.40;78.85;98709.03;5055145;28;20197;-69
2023/08/02 02:33:18;;;;;;;1.27;1.20;;;;;;;24.37;79.28;98709.34;5055281;28;20669;-69
2023/08/02 02:35:45;;;;;;;3.67;1.53;;;;;;;24.29;80.07;98711.91;5055048;28;20204;-69
2023/08/02 02:38:11;;;;;;;1.00;1.00;;;;;;;24.28;80.14;98710.25;5055167;28;20201;-70
2023/08/02 02:40:38;;;;;;;0.90;0.90;;;;;;;24.27;80.12;98704.19;5055121;28;20226;-69
2023/08/02 02:43:05;;;;;;;1.00;1.00;;;;;;;24.29;79.70;98706.66;5055072;28;20219;-70
2023/08/02 02:45:31;;;;;;;1.20;1.20;;;;;;;24.31;79.99;98709.94;5055038;28;20692;-69
2023/08/02 02:48:00;;;;;;;4.60;0.97;;;;;;;24.29;81.09;98711.91;5054662;28;20221;-69
2023/08/02 02:50:26;;;;;;;1.30;1.30;;;;;;;24.29;80.45;98710.09;5055070;28;20274;-70
2023/08/02 02:52:53;;;;;;;1.30;1.20;;;;;;;24.29;80.71;98722.38;5054687;28;20627;-69
2023/08/02 02:55:20;;;;;;;1.13;1.13;;;;;;;24.28;81.54;98725.97;5054915;28;20197;-69
2023/08/02 02:57:52;;;;;;;8.27;1.20;;;;;;;24.28;80.83;98726.78;5054911;28;20203;-70
2023/08/02 03:00:19;;;;;;;1.30;1.30;;;;;;;24.22;80.67;98730.00;5047898;28;20207;-69
2023/08/02 03:02:46;;;;;;;1.27;1.20;;;;;;;24.20;81.39;98726.69;5054623;28;20203;-70
2023/08/02 03:05:14;;;;;;;1.03;1.03;;;;;;;24.20;81.21;98731.13;5054343;28;20293;-70
2023/08/02 03:07:41;;;;;;;1.37;1.27;;;;;;;24.16;80.88;98729.78;5054557;28;20193;-70
2023/08/02 03:10:09;;;;;;;0.97;0.97;;;;;;;24.05;80.81;98726.34;5054486;28;20199;-69
2023/08/02 03:12:35;;;;;;;1.00;0.93;;;;;;;23.94;81.37;98729.16;5054590;28;20212;-70
2023/08/02 03:15:02;;;;;;;1.07;1.07;;;;;;;23.90;81.67;98730.44;5054415;28;20251;-69
2023/08/02 03:17:29;;;;;;;1.37;1.27;;;;;;;23.89;82.57;98725.34;5041915;28;20240;-69
2023/08/02 03:19:56;;;;;;;1.00;1.00;;;;;;;23.91;82.95;98729.47;5038466;28;20200;-69
2023/08/02 03:22:24;;;;;;;1.00;1.00;;;;;;;23.84;83.42;98727.59;5042313;28;20584;-69
2023/08/02 03:24:50;;;;;;;0.70;0.70;;;;;;;23.74;84.09;98732.88;5035076;28;20201;-70
2023/08/02 03:27:17;;;;;;;0.90;0.90;;;;;;;23.59;84.13;98713.38;5048453;28;20220;-72
2023/08/02 03:29:44;;;;;;;1.83;1.73;;;;;;;23.62;84.86;98730.59;5045857;28;20208;-72
2023/08/02 03:32:11;;;;;;;1.37;0.87;;;;;;;23.56;85.56;98729.34;5033996;28;20202;-70
2023/08/02 03:34:38;;;;;;;1.27;1.17;;;;;;;23.56;86.24;98729.34;5044851;28;20665;-69
2023/08/02 03:37:05;;;;;;;1.07;1.07;;;;;;;23.58;86.86;98727.44;5050877;28;20204;-69
2023/08/02 03:39:33;;;;;;;1.50;1.40;;;;;;;23.60;87.33;98730.72;5037997;28;20209;-69
2023/08/02 03:42:00;;;;;;;1.33;1.23;;;;;;;23.63;87.50;98729.59;5041121;28;20692;-69
2023/08/02 03:44:27;;;;;;;0.97;0.97;;;;;;;23.67;87.59;98733.59;5046686;28;20201;-69
2023/08/02 03:46:54;;;;;;;6.93;0.90;;;;;;;23.71;87.33;98733.16;5036259;28;20566;-69
2023/08/02 03:49:22;;;;;;;1.10;1.00;;;;;;;23.72;87.27;98729.56;5048797;28;20234;-69
2023/08/02 03:51:49;;;;;;;1.27;1.27;;;;;;;23.66;87.43;98745.84;5044796;28;20200;-69
2023/08/02 03:54:16;;;;;;;0.70;0.70;;;;;;;23.61;86.69;98748.09;5039316;28;20586;-72
2023/08/02 03:56:44;;;;;;;0.80;0.80;;;;;;;23.52;87.27;98743.72;5051941;28;20231;-69
2023/08/02 03:59:11;;;;;;;0.97;0.97;;;;;;;23.49;87.68;98739.56;5041014;28;20196;-69
2023/08/02 04:01:37;;;;;;;0.90;0.90;;;;;;;23.53;88.26;98742.72;5038346;28;20200;-69
2023/08/02 04:04:04;;;;;;;0.77;0.77;;;;;;;23.57;88.27;98736.25;5047756;28;20215;-70
2023/08/02 04:06:31;;;;;;;0.70;0.70;;;;;;;23.61;88.53;98737.63;5052089;28;20201;-68
2023/08/02 04:08:58;;;;;;;1.10;1.10;;;;;;;23.69;87.83;98744.72;5050628;28;20578;-69
2023/08/02 04:11:25;;;;;;;0.73;0.73;;;;;;;23.75;88.00;98750.22;5038630;28;20209;-69
2023/08/02 04:13:53;;;;;;;1.77;1.30;;;;;;;23.82;87.70;98758.31;5036407;28;20208;-69
2023/08/02 04:16:20;;;;;;;1.70;1.00;;;;;;;23.89;87.69;98756.75;5043340;28;20311;-69
2023/08/02 04:18:47;;;;;;;1.20;1.20;;;;;;;23.94;88.00;98744.88;5034622;28;20255;-69
2023/08/02 04:21:18;;;;;;;1.07;1.07;;;;;;;24.02;87.61;98744.97;5047300;28;20589;-69
2023/08/02 04:23:44;;;;;;;2.57;1.53;;;;;;;24.11;86.63;98745.88;5045793;28;20233;-69
2023/08/02 04:26:11;;;;;;;1.03;1.00;;;;;;;24.21;86.69;98751.09;5034759;28;20209;-69
2023/08/02 04:28:38;;;;;;;1.33;1.23;;;;;;;24.27;85.71;98740.84;5035840;28;20630;-69
2023/08/02 04:31:06;;;;;;;1.37;0.77;;;;;;;24.34;84.82;98744.53;5043808;28;20207;-69
2023/08/02 04:33:33;;;;;;;1.30;1.20;;;;;;;24.39;85.91;98750.16;5041280;28;20201;-69
2023/08/02 04:36:00;;;;;;;2.50;1.30;;;;;;;24.48;86.37;98754.50;5034081;28;20664;-69
2023/08/02 04:38:27;;;;;;;0.63;0.63;;;;;;;24.56;86.52;98749.31;5040700;28;20209;-70
2023/08/02 04:40:54;;;;;;;8.30;1.03;;;;;;;24.62;86.02;98740.03;5034841;28;20670;-70
2023/08/02 04:43:21;;;;;;;1.20;1.17;;;;;;;24.70;85.68;98731.41;5035176;28;20197;-70
2023/08/02 04:45:48;;;;;;;1.00;1.00;;;;;;;24.75;85.09;98739.66;5035484;28;20193;-69
2023/08/02 04:48:16;;;;;;;1.87;1.50;;;;;;;24.86;85.42;98740.28;5033143;28;20668;-69
2023/08/02 04:50:44;;;;;;;1.03;1.03;;;;;;;24.93;84.78;98738.69;5032327;28;20759;-73
2023/08/02 04:53:10;;;;;;;1.33;1.33;;;;;;;25.11;85.75;98740.44;5034944;28;20636;-69
2023/08/02 04:55:44;;;;;;;1.27;1.20;;;;;;;25.25;85.61;98745.13;5041221;28;20197;-69
2023/08/02 04:58:11;;;;;;;1.13;1.07;;;;;;;25.41;84.75;98747.84;5029101;28;20201;-68
2023/08/02 05:00:38;;;;;;;1.13;1.13;;;;;;;25.60;84.61;98755.53;5026479;28;20209;-70
2023/08/02 05:03:05;;;;;;;1.10;1.10;;;;;;;25.79;83.33;98752.66;5029486;28;20645;-68
2023/08/02 05:05:33;;;;;;;1.07;1.07;;;;;;;25.91;82.25;98751.38;5039608;28;20205;-69
2023/08/02 05:08:00;;;;;;;1.50;1.00;;;;;;;25.89;81.36;98742.84;5033997;28;20299;-69
2023/08/02 05:10:27;;;;;;;1.47;1.37;;;;;;;26.08;80.44;98755.72;5035506;28;20642;-69
2023/08/02 05:12:53;;;;;;;1.30;1.20;;;;;;;26.18;80.33;98757.41;5030463;28;20209;-69
2023/08/02 05:15:20;;;;;;;0.93;0.93;;;;;;;26.29;81.16;98752.69;5033735;28;20681;-69
2023/08/02 05:17:47;;;;;;;0.97;0.93;;;;;;;26.42;80.58;98745.16;5047413;28;20228;-69
2023/08/02 05:20:14;;;;;;;2.47;1.40;;;;;;;26.59;79.25;98756.50;5049212;28;20228;-70
2023/08/02 05:22:42;;;;;;;1.13;1.13;;;;;;;26.76;79.21;98752.88;5049794;28;20208;-69
2023/08/02 05:25:10;;;;;;;8.33;1.43;;;;;;;26.95;77.80;98762.28;5049650;28;20277;-69
2023/08/02 05:27:36;;;;;;;2.23;1.63;;;;;;;27.12;77.59;98769.19;5049451;28;20196;-69
2023/08/02 05:30:03;;;;;;;2.73;1.77;;;;;;;27.27;77.71;98774.59;5047312;28;20224;-70
2023/08/02 05:32:30;;;;;;;0.90;0.90;;;;;;;27.42;76.27;98772.94;5046765;28;20224;-69
2023/08/02 05:34:57;;;;;;;1.47;0.77;;;;;;;27.55;76.09;98770.63;5050056;28;20277;-70
2023/08/02 05:37:24;;;;;;;0.80;0.80;;;;;;;27.72;74.42;98772.22;5045726;28;20254;-74
2023/08/02 05:39:52;;;;;;;7.50;0.87;;;;;;;27.87;74.11;98780.22;5048498;28;20196;-71
2023/08/02 05:42:19;;;;;;;1.00;0.93;;;;;;;28.02;73.52;98768.78;5049226;28;20203;-69
2023/08/02 05:44:45;;;;;;;1.70;1.60;;;;;;;28.17;72.21;98773.38;5049813;28;20197;-67
2023/08/02 05:47:12;;;;;;;1.33;1.33;;;;;;;28.28;71.01;98767.69;5031603;28;20205;-71
2023/08/02 05:49:39;;;;;;;1.60;1.50;;;;;;;28.47;72.39;98770.69;5050081;28;20672;-73
2023/08/02 05:52:06;;;;;;;2.40;1.20;;;;;;;28.69;71.05;98771.75;5040757;28;20203;-72
2023/08/02 05:54:33;;;;;;;1.00;1.00;;;;;;;28.83;69.02;98762.22;5050083;28;20197;-72
2023/08/02 05:57:01;;;;;;;0.95;0.95;;;;;;;28.92;68.71;98767.25;5049525;28;20201;-70
2023/08/02 05:59:28;;;;;;;1.75;1.65;;;;;;;29.01;68.41;98768.84;5049499;28;20205;-71
2023/08/02 06:01:55;;;;;;;1.20;1.20;;;;;;;29.03;68.06;98772.13;5049499;28;20262;-71
2023/08/02 06:04:22;;;;;;;0.90;0.90;;;;;;;29.06;67.03;98769.13;5049749;28;20201;-70
2023/08/02 06:06:48;;;;;;;0.90;0.90;;;;;;;29.13;67.53;98770.06;5047905;28;20723;-74
2023/08/02 06:09:15;;;;;;;1.35;1.25;;;;;;;29.30;68.02;98773.41;5048606;28;21075;-69
2023/08/02 06:11:42;;;;;;;1.38;1.30;;;;;;;29.40;66.95;98775.78;5047067;28;20201;-72
2023/08/02 06:14:10;;;;;;;1.60;1.30;;;;;;;29.46;66.19;98772.41;5048593;28;20204;-70
2023/08/02 06:16:37;;;;;;;1.17;0.70;;;;;;;29.46;65.74;98764.47;5041152;28;20221;-72
2023/08/02 06:19:04;;;;;;;2.83;1.08;;;;;;;29.67;66.25;98768.03;5029281;28;20205;-70
2023/08/02 06:21:30;;;;;;;1.02;1.02;;;;;;;29.86;64.64;98771.13;5036409;28;20205;-72
2023/08/02 06:23:57;;;;;;;1.42;1.33;;;;;;;29.94;64.21;98774.50;5033437;28;20217;-72
2023/08/02 06:26:24;;;;;;;1.10;1.10;;;;;;;29.92;64.71;98778.34;5028195;28;20209;-72
2023/08/02 06:28:51;;;;;;;1.17;1.02;;;;;;;29.89;65.31;98776.88;5034275;28;20212;-72
2023/08/02 06:31:19;;;;;;;0.90;0.90;;;;;;;29.91;64.79;98769.59;5028075;28;20201;-71
2023/08/02 06:33:45;;;;;;;1.20;1.10;;;;;;;29.96;64.74;98772.50;5033027;28;20203;-73
2023/08/02 06:36:12;;;;;;;1.15;1.15;;;;;;;29.97;63.00;98763.56;5035761;28;20669;-72
2023/08/02 06:38:39;;;;;;;1.27;1.23;;;;;;;29.88;62.52;98769.16;5028184;28;20688;-73
2023/08/02 06:41:06;;;;;;;0.98;0.98;;;;;;;29.78;63.00;98764.09;5032973;28;20619;-73
2023/08/02 06:43:33;;;;;;;1.73;1.63;;;;;;;29.65;63.52;98748.91;5036365;28;20201;-72
2023/08/02 06:46:00;;;;;;;1.00;1.00;;;;;;;29.72;63.41;98764.03;5034816;28;20205;-68
2023/08/02 06:48:29;;;;;;;1.48;1.38;;;;;;;29.63;64.26;98768.56;5035584;28;20201;-71
2023/08/02 06:50:56;;;;;;;1.30;1.10;;;;;;;29.61;65.39;98767.94;5030649;28;20217;-72
2023/08/02 06:53:22;;;;;;;1.63;1.52;;;;;;;29.62;66.32;98769.59;5031674;28;20209;-70
2023/08/02 06:55:49;;;;;;;1.23;1.15;;;;;;;29.67;66.55;98756.63;5029729;28;20198;-71
2023/08/02 06:58:16;;;;;;;1.20;1.20;;;;;;;29.99;64.05;98774.75;5033975;28;20649;-71
2023/08/02 07:00:43;;;;;;;2.03;1.13;;;;;;;30.19;65.01;98789.03;5047316;28;20201;-68
2023/08/02 07:03:10;;;;;;;1.25;1.25;;;;;;;30.36;62.69;98783.53;5051927;28;20579;-68
2023/08/02 07:05:38;;;;;;;2.25;1.30;;;;;;;30.45;64.81;98767.38;5043328;28;20204;-68
2023/08/02 07:08:05;;;;;;;1.13;1.10;;;;;;;30.56;61.25;98766.09;5049651;28;20200;-68
2023/08/02 07:10:32;;;;;;;1.85;1.70;;;;;;;30.66;61.81;98774.53;5045941;28;20225;-68
2023/08/02 07:12:59;;;;;;;1.77;1.10;;;;;;;30.48;59.95;98776.78;5037546;28;20587;-68
2023/08/02 07:15:25;;;;;;;1.35;1.25;;;;;;;30.51;59.94;98771.09;5042956;28;20201;-68
2023/08/02 07:17:52;;;;;;;1.70;1.55;;;;;;;30.52;59.56;98778.03;5052215;28;20708;-68
2023/08/02 07:20:19;;;;;;;1.20;1.20;;;;;;;30.63;63.10;98775.69;5054383;28;20201;-68
2023/08/02 07:22:47;;;;;;;1.42;1.38;;;;;;;30.83;59.96;98777.72;5053651;28;20228;-74
2023/08/02 07:25:14;;;;;;;1.23;1.13;;;;;;;31.05;61.77;98774.88;5053160;28;20200;-76
2023/08/02 07:27:42;;;;;;;1.75;1.65;;;;;;;31.19;60.53;98771.34;5053398;28;20834;-72
2023/08/02 07:30:09;;;;;;;1.60;1.50;;;;;;;31.36;60.24;98773.69;5051796;28;20228;-73
2023/08/02 07:32:36;;;;;;;1.63;1.52;;;;;;;31.46;59.64;98768.88;5051028;28;20627;-72
2023/08/02 07:35:03;;;;;;;1.70;1.60;;;;;;;31.77;58.20;98769.28;5050620;28;20196;-73
2023/08/02 07:37:30;;;;;;;1.80;1.60;;;;;;;31.71;55.69;98773.53;5051122;28;20215;-71
2023/08/02 07:39:58;;;;;;;1.30;1.20;;;;;;;31.60;56.95;98767.97;5051691;28;20193;-73
2023/08/02 07:42:25;;;;;;;1.77;1.58;;;;;;;31.81;58.18;98775.81;5052239;28;20232;-71
2023/08/02 07:45:03;;;;;;;1.52;1.42;;;;;;;31.94;62.46;98762.63;5052319;28;20208;-72
2023/08/02 07:47:30;;;;;;;1.50;1.40;;;;;;;32.12;57.99;98757.63;5051746;28;20244;-73
2023/08/02 07:49:56;;;;;;;1.20;1.20;;;;;;;32.36;55.64;98768.69;5051535;28;20349;-72
2023/08/02 07:52:23;;;;;;;1.20;1.20;;;;;;;32.54;55.57;98760.97;5051674;28;20620;-73
2023/08/02 07:54:52;;;;;;;1.35;1.30;;;;;;;32.69;53.69;98764.31;5052241;28;20208;-72
2023/08/02 07:57:21;;;;;;;1.77;1.40;;;;;;;32.73;53.54;98763.69;5052093;28;20193;-72
2023/08/02 07:59:48;;;;;;;1.25;1.20;;;;;;;32.63;53.96;98760.63;5051821;28;20326;-72
2023/08/02 08:02:15;;;;;;;1.77;1.60;;;;;;;32.57;55.94;98755.31;5050915;28;20219;-73
2023/08/02 08:04:42;;;;;;;2.15;1.23;;;;;;;32.66;54.39;98754.09;5051769;28;20196;-71
2023/08/02 08:07:09;;;;;;;2.03;1.50;;;;;;;32.76;54.05;98749.22;5050915;28;20649;-71
2023/08/02 08:09:36;;;;;;;1.80;1.70;;;;;;;32.84;55.16;98746.34;5051908;28;20200;-72
2023/08/02 08:12:04;;;;;;;1.30;1.30;;;;;;;33.10;53.67;98751.69;5051265;28;20204;-72
2023/08/02 08:14:33;;;;;;;1.52;1.42;;;;;;;33.29;54.05;98750.00;5052518;28;20220;-73
2023/08/02 08:17:00;;;;;;;1.40;1.30;;;;;;;33.42;51.23;98744.69;5052210;28;20670;-72
2023/08/02 08:19:27;;;;;;;2.00;1.50;;;;;;;33.44;51.81;98753.28;5052474;28;20223;-75
2023/08/02 08:21:54;;;;;;;1.50;1.40;;;;;;;33.63;51.59;98746.31;5052132;28;20733;-75
2023/08/02 08:24:21;;;;;;;1.70;1.60;;;;;;;33.79;50.07;98727.22;5051586;28;20207;-75
2023/08/02 08:26:48;;;;;;;2.08;1.55;;;;;;;34.24;52.58;98744.84;5051972;28;20197;-75
2023/08/02 08:29:15;;;;;;;3.05;1.33;;;;;;;34.41;48.68;98744.31;5050826;28;20196;-75
2023/08/02 08:31:43;;;;;;;1.52;1.42;;;;;;;34.52;49.56;98736.47;5051200;28;20220;-74
2023/08/02 08:34:10;;;;;;;2.58;1.63;;;;;;;34.32;49.77;98737.59;5051563;28;20249;-72
2023/08/02 08:36:36;;;;;;;1.50;1.40;;;;;;;34.33;48.73;98744.56;5051461;28;20802;-74
2023/08/02 08:39:03;;;;;;;1.60;1.50;;;;;;;34.50;48.64;98737.72;5052074;28;20228;-74
2023/08/02 08:41:30;;;;;;;1.20;1.10;;;;;;;34.69;52.82;98734.13;5051729;28;20201;-72
2023/08/02 08:43:57;;;;;;;1.83;1.73;;;;;;;34.78;49.55;98730.16;5051991;28;20204;-70
2023/08/02 08:46:25;;;;;;;1.88;1.60;;;;;;;34.83;50.47;98722.34;5052208;28;20720;-73
2023/08/02 08:48:53;;;;;;;1.70;1.60;;;;;;;34.94;50.88;98721.59;5051685;28;20200;-74
2023/08/02 08:51:22;;;;;;;1.70;1.60;;;;;;;35.07;48.41;98726.81;5050292;28;20220;-75
2023/08/02 08:53:49;;;;;;;1.38;1.27;;;;;;;35.17;46.37;98719.16;5051010;28;20228;-76
2023/08/02 08:56:19;;;;;;;1.55;1.45;;;;;;;35.37;46.22;98732.28;5051974;28;20612;-75
2023/08/02 08:58:45;;;;;;;1.70;1.60;;;;;;;35.11;47.19;98733.38;5050875;28;20204;-75
2023/08/02 09:01:15;;;;;;;1.30;1.30;;;;;;;35.08;47.51;98714.31;5051910;28;20612;-75
2023/08/02 09:03:44;;;;;;;1.55;1.55;;;;;;;35.26;47.14;98727.69;5051527;28;20200;-75
2023/08/02 09:06:14;;;;;;;1.40;1.30;;;;;;;35.33;46.08;98716.94;5050677;28;20208;-75
2023/08/02 09:08:43;;;;;;;2.53;1.45;;;;;;;35.46;46.47;98716.81;5051169;28;20205;-75
2023/08/02 09:11:10;;;;;;;1.02;1.02;;;;;;;35.72;45.49;98724.53;5050590;28;20216;-75
2023/08/02 09:13:36;;;;;;;1.40;1.40;;;;;;;35.76;45.54;98731.06;5051200;28;20201;-73
2023/08/02 09:16:08;;;;;;;1.50;1.40;;;;;;;35.61;43.96;98730.59;5051233;28;20278;-75
2023/08/02 09:18:36;;;;;;;1.73;1.63;;;;;;;35.24;46.04;98703.94;5051471;28;20200;-75
2023/08/02 09:21:03;;;;;;;1.08;1.08;;;;;;;35.18;46.21;98731.47;5051665;28;20224;-75
2023/08/02 09:23:33;;;;;;;1.25;1.15;;;;;;;35.49;48.14;98721.69;5051404;28;20200;-75
2023/08/02 09:26:14;;;;;;;1.20;1.20;;;;;;;35.43;46.01;98723.41;5050864;28;20197;-74
2023/08/02 09:28:41;;;;;;;1.70;1.55;;;;;;;35.24;47.35;98703.94;5050693;28;20274;-76
2023/08/02 09:31:16;;;;;;;1.50;1.27;;;;;;;35.37;49.92;98723.47;5048775;28;20231;-76
2023/08/02 09:33:50;;;;;;;1.88;1.30;;;;;;;35.51;45.82;98724.97;5046487;28;20211;-75
2023/08/02 09:36:28;;;;;;;1.85;1.75;;;;;;;35.74;44.64;98717.13;5049318;28;20261;-76
2023/08/02 09:39:01;;;;;;;1.42;1.33;;;;;;;35.88;47.79;98715.94;5048464;28;20207;-75
2023/08/02 09:41:28;;;;;;;1.65;1.58;;;;;;;35.79;45.46;98707.44;5048475;28;20205;-76
2023/08/02 09:43:56;;;;;;;1.17;1.17;;;;;;;35.94;45.46;98711.53;5049352;28;20209;-76
2023/08/02 09:46:24;;;;;;;0.98;0.98;;;;;;;35.87;43.58;98703.63;5049265;28;20208;-75
2023/08/02 09:48:51;;;;;;;3.90;1.38;;;;;;;35.80;42.95;98692.25;5049155;28;20740;-76
2023/08/02 09:51:17;;;;;;;1.55;1.45;;;;;;;35.94;44.15;98704.34;5049471;28;20689;-76
2023/08/02 09:53:54;;;;;;;1.38;1.27;;;;;;;35.75;42.15;98681.41;5046292;28;20212;-75
2023/08/02 09:56:24;;;;;;;1.38;1.38;;;;;;;35.66;42.30;98691.59;5048773;28;20254;-75
2023/08/02 09:58:54;;;;;;;1.33;1.23;;;;;;;35.37;44.53;98691.50;5049189;28;20283;-76
2023/08/02 10:01:23;;;;;;;1.30;1.20;;;;;;;35.45;44.84;98680.50;5049553;28;20236;-75
2023/08/02 10:03:55;;;;;;;1.30;1.20;;;;;;;35.71;44.38;98680.22;5050147;28;20209;-76
2023/08/02 10:06:24;;;;;;;1.20;1.20;;;;;;;35.79;43.30;98679.94;5048821;28;20266;-76
2023/08/02 10:08:55;;;;;;;1.40;1.30;;;;;;;35.94;43.12;98672.34;5048824;28;20201;-76
2023/08/02 10:11:25;;;;;;;1.23;1.20;;;;;;;35.84;41.78;98666.72;5048506;28;20228;-75
2023/08/02 10:13:54;;;;;;;1.48;1.45;;;;;;;35.90;43.68;98662.34;5048090;28;20203;-74
2023/08/02 10:16:24;;;;;;;1.23;1.20;;;;;;;36.06;43.84;98669.75;5048906;28;20251;-74
2023/08/02 10:18:52;;;;;;;2.70;1.65;;;;;;;36.26;41.91;98664.91;5049580;28;20250;-74
2023/08/02 10:21:20;;;;;;;1.60;1.50;;;;;;;36.22;44.18;98631.72;5048567;28;20283;-75
2023/08/02 10:23:47;;;;;;;1.20;1.10;;;;;;;36.52;43.75;98658.34;5046493;28;20553;-75
2023/08/02 10:26:16;;;;;;;1.30;1.30;;;;;;;36.46;40.62;98664.59;5049284;28;20200;-75
2023/08/02 10:28:46;;;;;;;1.23;1.13;;;;;;;36.26;40.84;98652.38;5048650;28;22176;-74
2023/08/02 10:31:14;;;;;;;3.03;1.20;;;;;;;36.28;41.04;98647.66;5047999;28;20224;-75
2023/08/02 10:33:40;;;;;;;1.33;1.33;;;;;;;36.45;45.21;98637.09;5048586;28;20224;-74
2023/08/02 10:36:08;;;;;;;1.50;1.40;;;;;;;36.50;41.76;98639.06;5040884;28;20695;-74
2023/08/02 10:38:48;;;;;;;1.60;1.50;;;;;;;36.50;40.04;98639.06;5049776;28;20216;-74
2023/08/02 10:41:16;;;;;;;2.28;1.30;;;;;;;36.33;41.01;98639.75;5052591;28;20732;-74
2023/08/02 10:44:13;;;;;;;1.10;1.10;;;;;;;36.60;42.29;98626.00;5052165;28;20269;-73
2023/08/02 10:46:40;;;;;;;1.45;1.35;;;;;;;36.89;41.94;98633.06;5051792;28;20235;-73
2023/08/02 10:49:41;;;;;;;1.17;1.10;;;;;;;36.91;39.77;98624.81;5051399;28;20207;-74
2023/08/02 10:52:27;;;;;;;1.40;1.30;;;;;;;36.60;43.34;98617.97;5051577;28;20220;-74
2023/08/02 10:55:13;;;;;;;1.70;1.60;;;;;;;36.22;41.98;98616.50;5051207;28;20212;-74
2023/08/02 10:57:41;;;;;;;1.85;1.15;;;;;;;36.33;42.03;98613.06;5053011;28;20209;-74
2023/08/02 11:00:23;;;;;;;1.10;0.95;;;;;;;36.53;39.50;98622.59;5049775;28;20200;-74
2023/08/02 11:02:51;;;;;;;1.10;1.00;;;;;;;36.80;38.95;98623.78;5051696;28;20213;-74
2023/08/02 11:05:36;;;;;;;1.10;1.10;;;;;;;36.77;41.19;98576.97;5054720;28;20212;-74
2023/08/02 11:08:03;;;;;;;1.13;1.13;;;;;;;37.23;40.84;98610.84;5052560;28;20213;-75
2023/08/02 11:10:30;;;;;;;1.33;1.30;;;;;;;37.27;40.27;98608.50;5053012;28;20208;-73
2023/08/02 11:12:57;;;;;;;1.70;1.17;;;;;;;37.28;39.70;98616.31;5052577;28;20228;-74
2023/08/02 11:15:25;;;;;;;1.20;1.02;;;;;;;37.32;39.05;98611.31;5052878;28;20205;-74
2023/08/02 11:17:56;;;;;;;1.30;1.20;;;;;;;37.43;37.05;98606.94;5051815;28;20239;-74
2023/08/02 11:20:28;;;;;;;1.05;1.00;;;;;;;37.69;37.58;98607.22;5052007;28;20213;-74
2023/08/02 11:22:55;;;;;;;1.30;1.20;;;;;;;37.70;35.68;98570.59;5052398;28;20212;-71
2023/08/02 11:25:22;;;;;;;0.90;0.90;;;;;;;37.72;35.62;98600.56;5052548;28;20220;-75
2023/08/02 11:28:01;;;;;;;1.60;1.50;;;;;;;37.58;38.50;98607.28;5052922;28;20197;-73
2023/08/02 11:30:30;;;;;;;1.40;1.30;;;;;;;37.45;38.39;98602.97;5051866;28;20204;-74
2023/08/02 11:32:57;;;;;;;1.30;1.30;;;;;;;37.50;38.24;98599.63;5051996;28;20197;-74
2023/08/02 11:35:24;;;;;;;1.35;1.23;;;;;;;37.46;38.05;98601.16;5050760;28;20196;-74
2023/08/02 11:37:52;;;;;;;2.08;1.88;;;;;;;37.23;37.83;98597.47;5050490;28;20200;-72